Mayhew, Mississippi
Current Conditions -  °F | °C
As of 3:50 PM on Saturday 25 Oct 2014 (Local Time) from KGTR Reporting Station
Few Clouds Few Clouds  
Wind Chill: 27°   Ceiling: Unl
Heat Index: 27°   Visibility: 10mi
Dew Point: 16°   Wind: 6mph
Humidity: 51%   Direction: 280°W
Pressure: 30.04"   Gusts: NA
Location:  33.49°N, 88.63°W
Report Text: KGTR 252050Z 28005KT 10SM FEW070 27/16 A3004
Loading
Personal Weather Stations






























Interactive Weather Map
Tropical Storm Tracking
New forecast layout! Learn more

10-Day Weather Forecast

Advertisements
Track Severe Weather on mobile